Time;durP1;ratioP1;P1;durP2;ratioP2;P2;SDS_P1;SDS_P2;PMS_P1;PMS_P2;Temp;Humidity;BMP_temperature;BMP_pressure;BME280_temperature;BME280_humidity;BME280_pressure;Samples;Min_cycle;Max_cycle;Signal;HPM_P1;HPM_P2
2022/05/13 00:01:14;;;;;;;12.47;5.37;;;;;;;18.73;76.95;100038.16;6220340;28;20049;-76
2022/05/13 00:04:15;;;;;;;9.33;5.20;;;;;;;18.70;76.56;100041.09;6231055;28;20049;-75
2022/05/13 00:07:16;;;;;;;7.87;5.33;;;;;;;18.44;78.13;100056.78;6230564;28;20747;-75
2022/05/13 00:10:18;;;;;;;7.17;5.10;;;;;;;18.41;79.41;100058.84;6222883;28;20054;-75
2022/05/13 00:13:19;;;;;;;7.93;5.85;;;;;;;18.33;80.46;100049.03;6239315;28;20874;-75
2022/05/13 00:16:19;;;;;;;15.43;6.10;;;;;;;18.28;80.90;100060.03;6224081;28;20046;-75
2022/05/13 00:19:20;;;;;;;22.77;6.03;;;;;;;18.11;82.05;100056.31;6239229;28;20050;-75
2022/05/13 00:22:22;;;;;;;10.60;6.00;;;;;;;18.05;82.53;100051.59;6190586;28;20089;-75
2022/05/13 00:25:27;;;;;;;11.30;6.65;;;;;;;18.09;82.97;100045.03;6222748;28;20073;-75
2022/05/13 00:28:28;;;;;;;8.77;5.88;;;;;;;18.18;81.93;100038.09;6243630;28;20048;-75
2022/05/13 00:31:29;;;;;;;12.17;6.33;;;;;;;18.24;81.59;100048.09;6231300;28;20060;-75
2022/05/13 00:34:31;;;;;;;9.80;6.37;;;;;;;18.17;82.41;100046.16;6190593;28;20062;-75
2022/05/13 00:37:32;;;;;;;13.60;6.60;;;;;;;18.20;82.05;100043.22;6190043;28;20072;-75
2022/05/13 00:40:35;;;;;;;9.00;6.30;;;;;;;18.18;81.49;100040.75;6223950;28;20041;-75
2022/05/13 00:43:44;;;;;;;10.38;6.35;;;;;;;18.16;82.55;100039.19;6223892;28;20299;-76
2022/05/13 00:46:45;;;;;;;12.88;6.82;;;;;;;18.14;82.26;100039.38;6242706;28;20050;-75
2022/05/13 00:49:46;;;;;;;9.33;6.40;;;;;;;18.14;82.17;100039.38;6248723;28;20045;-75
2022/05/13 00:52:50;;;;;;;8.97;7.03;;;;;;;18.15;82.98;100041.00;6231111;28;20064;-76
2022/05/13 00:55:53;;;;;;;9.63;7.00;;;;;;;18.10;84.15;100040.63;6248422;28;20053;-76
2022/05/13 00:58:57;;;;;;;14.05;7.28;;;;;;;18.06;83.72;100044.53;6263910;28;20077;-76
2022/05/13 01:01:58;;;;;;;13.15;8.48;;;;;;;18.01;84.13;100052.84;6247763;28;20050;-76
2022/05/13 01:04:59;;;;;;;14.57;9.00;;;;;;;17.98;83.83;100045.22;6248032;28;20505;-75
2022/05/13 01:08:04;;;;;;;11.30;8.52;;;;;;;17.93;85.97;100050.06;6221552;28;20045;-74
2022/05/13 01:11:11;;;;;;;15.27;9.85;;;;;;;17.88;85.52;100053.16;6238608;28;20069;-75
2022/05/13 01:14:19;;;;;;;11.07;8.88;;;;;;;17.81;85.21;100048.53;6205247;28;20505;-75
2022/05/13 01:20:47;;;;;;;17.77;10.40;;;;;;;17.66;87.62;100046.31;6247255;28;20048;-76
2022/05/13 01:23:50;;;;;;;12.98;9.98;;;;;;;17.58;87.96;100055.91;6244804;28;20057;-76
2022/05/13 01:26:52;;;;;;;13.63;10.43;;;;;;;17.57;87.51;100052.44;6247087;28;20041;-75
2022/05/13 01:29:53;;;;;;;16.60;11.02;;;;;;;17.41;89.86;100046.88;6229471;28;20046;-75
2022/05/13 01:32:55;;;;;;;15.50;10.82;;;;;;;17.40;90.04;100047.84;6229478;28;20048;-76
2022/05/13 01:35:58;;;;;;;18.35;11.45;;;;;;;17.35;92.10;100050.06;6245841;28;20049;-75
2022/05/13 01:38:59;;;;;;;19.23;11.55;;;;;;;17.35;92.94;100039.53;6212864;28;20169;-75
2022/05/13 01:42:00;;;;;;;22.75;11.88;;;;;;;17.24;92.80;100043.13;6229135;28;20056;-74
2022/05/13 01:45:01;;;;;;;25.30;13.43;;;;;;;17.17;94.60;100034.91;6212791;28;20377;-75
2022/05/13 01:48:04;;;;;;;20.33;13.38;;;;;;;17.09;94.54;100034.75;6229265;28;20045;-75
2022/05/13 01:51:05;;;;;;;19.83;12.57;;;;;;;16.99;94.59;100034.75;6245673;28;20486;-75
2022/05/13 01:54:06;;;;;;;17.15;11.80;;;;;;;16.85;95.87;100041.22;6245526;28;20050;-75
2022/05/13 01:57:07;;;;;;;13.77;10.80;;;;;;;16.88;95.07;100038.34;6228999;28;20119;-75
2022/05/13 02:00:08;;;;;;;16.73;11.57;;;;;;;16.88;96.02;100033.06;6212760;28;20119;-75
2022/05/13 02:06:29;;;;;;;17.85;11.13;;;;;;;17.01;93.82;100040.72;6240028;28;20058;-75
2022/05/13 02:09:30;;;;;;;16.23;10.47;;;;;;;17.07;92.96;100037.53;6188364;28;20054;-75
2022/05/13 02:12:31;;;;;;;13.45;10.13;;;;;;;17.00;94.48;100044.31;6222079;28;20057;-74
2022/05/13 02:15:32;;;;;;;15.13;10.23;;;;;;;17.02;93.80;100049.44;6208284;28;20037;-74
2022/05/13 02:18:33;;;;;;;19.92;10.70;;;;;;;17.00;94.41;100044.31;6226902;28;20042;-74
2022/05/13 02:21:35;;;;;;;16.15;10.43;;;;;;;16.86;95.58;100039.41;6193269;28;20450;-74
2022/05/13 02:24:35;;;;;;;14.13;10.17;;;;;;;16.81;95.99;100041.63;6208968;28;20079;-74
2022/05/13 02:27:36;;;;;;;11.57;9.80;;;;;;;16.75;96.89;100045.59;6209271;28;20046;-74
2022/05/13 02:30:37;;;;;;;12.10;9.38;;;;;;;16.73;96.46;100042.25;6208965;28;20058;-74
2022/05/13 02:33:38;;;;;;;14.13;9.40;;;;;;;16.63;98.46;100049.28;6225205;28;20056;-74
2022/05/13 02:36:39;;;;;;;16.93;8.80;;;;;;;16.59;98.88;100046.09;6225214;28;20100;-74
2022/05/13 02:39:40;;;;;;;15.45;9.63;;;;;;;16.49;99.77;100043.44;6225258;28;20041;-74
2022/05/13 02:42:41;;;;;;;13.02;9.57;;;;;;;16.52;100.00;100027.34;6208857;28;20042;-74
2022/05/13 02:45:42;;;;;;;12.90;9.18;;;;;;;16.58;100.00;100038.34;6208522;28;20054;-74
2022/05/13 02:48:43;;;;;;;12.90;9.20;;;;;;;16.58;99.98;100043.59;6224746;28;20103;-74
2022/05/13 02:51:48;;;;;;;12.40;8.68;;;;;;;16.52;100.00;100042.31;6208642;28;20065;-74
2022/05/13 02:54:49;;;;;;;13.98;9.13;;;;;;;16.42;100.00;100028.28;6224523;28;20046;-74
2022/05/13 02:57:50;;;;;;;21.05;9.68;;;;;;;16.42;100.00;100026.47;6208436;28;20501;-74
2022/05/13 03:00:52;;;;;;;13.38;9.50;;;;;;;16.49;100.00;100046.06;6224460;28;20107;-75
2022/05/13 03:03:53;;;;;;;13.75;9.20;;;;;;;16.49;100.00;100056.59;6224451;28;20042;-74
2022/05/13 03:06:54;;;;;;;18.60;9.65;;;;;;;16.52;100.00;100063.41;6225777;28;20065;-75
2022/05/13 03:09:55;;;;;;;9.98;8.88;;;;;;;16.50;100.00;100050.34;6208249;28;20038;-75
2022/05/13 03:12:57;;;;;;;12.18;9.50;;;;;;;16.44;100.00;100056.16;6225602;28;20088;-75
2022/05/13 03:16:06;;;;;;;14.90;9.77;;;;;;;16.38;100.00;100053.22;6224226;28;20405;-75
2022/05/13 03:19:07;;;;;;;15.50;9.85;;;;;;;16.32;100.00;100051.94;6191991;28;20077;-75
2022/05/13 03:22:08;;;;;;;12.48;9.95;;;;;;;16.38;100.00;100048.78;6207931;28;20498;-73
2022/05/13 03:25:10;;;;;;;16.75;10.43;;;;;;;16.47;100.00;100050.63;6223168;28;20053;-73
2022/05/13 03:28:11;;;;;;;15.13;9.90;;;;;;;16.59;100.00;100055.78;6226707;28;20057;-73
2022/05/13 03:31:12;;;;;;;12.30;9.52;;;;;;;16.59;100.00;100075.06;6208575;28;20046;-73
2022/05/13 03:34:13;;;;;;;12.10;8.93;;;;;;;16.68;100.00;100084.00;6224568;28;20054;-73
2022/05/13 03:37:14;;;;;;;16.90;9.87;;;;;;;16.77;100.00;100090.25;6224511;28;20054;-73
2022/05/13 03:40:17;;;;;;;16.75;9.70;;;;;;;16.77;100.00;100090.25;6233803;28;20287;-73
2022/05/13 03:43:18;;;;;;;11.55;9.15;;;;;;;16.99;97.47;100098.00;6248437;28;20107;-73
2022/05/13 03:46:19;;;;;;;15.02;10.30;;;;;;;16.98;97.04;100103.41;6249209;28;20541;-73
2022/05/13 03:49:20;;;;;;;14.45;9.77;;;;;;;16.89;96.89;100094.50;6248901;28;20100;-74
2022/05/13 03:52:21;;;;;;;12.90;9.52;;;;;;;16.94;95.74;100088.81;6265461;28;20425;-74
2022/05/13 03:55:23;;;;;;;12.90;9.70;;;;;;;17.01;95.22;100092.63;6231957;28;20069;-74
2022/05/13 03:58:23;;;;;;;14.18;9.52;;;;;;;17.01;95.73;100100.53;6232534;28;20096;-74
2022/05/13 04:01:24;;;;;;;14.65;9.48;;;;;;;17.12;95.81;100113.59;6224621;28;20457;-73
2022/05/13 04:04:29;;;;;;;12.90;9.85;;;;;;;17.15;95.24;100107.19;6207330;28;20116;-73
2022/05/13 04:10:49;;;;;;;13.90;9.75;;;;;;;17.27;94.27;100119.31;6196322;28;20058;-74
2022/05/13 04:17:10;;;;;;;20.80;9.60;;;;;;;17.41;93.74;100103.09;6242564;28;20050;-74
2022/05/13 04:20:11;;;;;;;13.82;10.43;;;;;;;17.42;93.62;100106.56;6207444;28;20056;-74
2022/05/13 04:23:12;;;;;;;13.70;10.23;;;;;;;17.36;94.07;100113.22;6206910;28;20093;-74
2022/05/13 04:26:14;;;;;;;11.52;9.25;;;;;;;17.38;94.69;100116.56;6223356;28;20469;-73
2022/05/13 04:29:14;;;;;;;;;;;;;;;17.39;96.43;100115.59;6224996;28;20378;-74
2022/05/13 04:32:15;;;;;;;13.90;9.35;;;;;;;17.37;94.19;100106.97;6223442;28;19921;-74
2022/05/13 04:35:16;;;;;;;15.57;10.32;;;;;;;17.33;94.32;100111.69;6190499;28;20058;-74
2022/05/13 04:38:17;;;;;;;12.70;9.70;;;;;;;17.43;94.76;100111.69;6206876;28;20042;-74
2022/05/13 04:44:38;;;;;;;14.18;9.57;;;;;;;17.63;94.45;100106.47;6247713;28;20672;-75
2022/05/13 04:50:58;;;;;;;16.35;10.15;;;;;;;17.73;93.59;100109.94;6248517;28;20037;-74
2022/05/13 04:53:59;;;;;;;19.38;11.40;;;;;;;17.81;93.01;100114.50;6247399;28;20568;-75
2022/05/13 04:57:00;;;;;;;102.20;52.23;;;;;;;17.95;92.25;100105.38;6248630;28;20041;-75
2022/05/13 05:00:01;;;;;;;25.00;16.08;;;;;;;18.07;90.66;100106.91;6230641;28;20437;-75
2022/05/13 05:03:02;;;;;;;28.83;14.30;;;;;;;18.20;94.89;100103.94;6247120;28;20057;-75
2022/05/13 05:06:04;;;;;;;17.27;11.38;;;;;;;18.28;95.82;100099.66;6247152;28;20054;-75
2022/05/13 05:09:05;;;;;;;;;;;;;;;18.39;96.27;100105.72;6214999;28;20045;-75
2022/05/13 05:12:08;;;;;;;18.10;10.50;;;;;;;18.47;96.23;100106.69;6248231;28;19924;-75
2022/05/13 05:15:09;;;;;;;17.20;11.35;;;;;;;18.58;98.26;100110.97;6248026;28;20053;-76
2022/05/13 05:18:10;;;;;;;18.80;10.75;;;;;;;18.59;96.00;100111.78;6230416;28;20056;-75
2022/05/13 05:21:12;;;;;;;23.17;10.83;;;;;;;18.72;92.23;100128.19;6214116;28;20058;-74
2022/05/13 05:24:12;;;;;;;20.63;9.65;;;;;;;18.69;92.53;100145.13;6214074;28;20046;-75
2022/05/13 05:27:13;;;;;;;29.60;17.70;;;;;;;18.42;95.04;100160.91;6246593;28;20410;-74
2022/05/13 05:30:15;;;;;;;27.00;15.57;;;;;;;18.55;95.75;100184.38;6246286;28;20057;-75
2022/05/13 05:33:16;;;;;;;28.13;12.45;;;;;;;18.56;93.85;100164.94;6245913;28;20042;-75
2022/05/13 05:36:17;;;;;;;25.27;12.48;;;;;;;18.53;96.44;100155.47;6230079;28;20053;-75
2022/05/13 05:39:18;;;;;;;24.40;12.23;;;;;;;18.79;95.91;100161.00;6246585;28;20045;-75
2022/05/13 05:42:18;;;;;;;28.90;12.30;;;;;;;18.91;94.60;100161.66;6230036;28;20144;-75
2022/05/13 05:45:21;;;;;;;15.45;11.15;;;;;;;19.08;92.81;100162.69;6229932;28;20053;-75
2022/05/13 05:48:22;;;;;;;26.42;11.52;;;;;;;19.21;94.08;100170.28;6245963;28;20053;-75
2022/05/13 05:51:23;;;;;;;16.65;9.52;;;;;;;19.26;92.55;100168.06;6244500;28;20655;-75
2022/05/13 05:58:03;;;;;;;22.27;10.13;;;;;;;19.24;90.50;100175.31;6254241;28;20060;-75
2022/05/13 06:01:05;;;;;;;18.75;10.25;;;;;;;19.17;91.51;100180.34;6247788;28;20497;-75
2022/05/13 06:04:06;;;;;;;24.70;12.00;;;;;;;19.49;89.56;100177.25;6181512;28;20391;-76
2022/05/13 06:07:10;;;;;;;22.03;13.57;;;;;;;19.60;88.49;100176.22;6229654;28;20065;-73
2022/05/13 06:10:11;;;;;;;26.63;12.70;;;;;;;19.64;90.02;100185.53;6213152;28;20546;-73
2022/05/13 06:13:14;;;;;;;18.48;11.38;;;;;;;20.13;85.45;100190.50;6230929;28;20068;-73
2022/05/13 06:16:16;;;;;;;17.67;9.52;;;;;;;20.02;81.55;100204.81;6214155;28;20053;-74
2022/05/13 06:19:17;;;;;;;15.45;9.18;;;;;;;20.18;80.52;100214.72;6237023;28;20494;-74
2022/05/13 06:22:17;;;;;;;23.53;8.33;;;;;;;20.20;78.67;100206.59;6253600;28;20038;-75
2022/05/13 06:25:22;;;;;;;11.07;7.27;;;;;;;20.31;77.19;100219.63;6253273;28;20041;-75
2022/05/13 06:28:23;;;;;;;9.82;7.15;;;;;;;20.23;76.71;100217.72;6228677;28;20049;-75
2022/05/13 06:31:25;;;;;;;16.80;7.10;;;;;;;20.27;76.79;100212.97;6228844;28;20076;-75
2022/05/13 06:34:25;;;;;;;15.73;6.45;;;;;;;20.49;77.16;100206.38;6212403;28;20712;-76
2022/05/13 06:37:26;;;;;;;12.67;6.30;;;;;;;20.70;78.92;100212.16;6238290;28;20034;-75
2022/05/13 06:40:27;;;;;;;11.57;6.40;;;;;;;20.83;78.14;100202.97;6236585;28;20153;-76
2022/05/13 06:43:28;;;;;;;14.93;5.83;;;;;;;20.86;74.49;100214.09;6229403;28;20422;-76
2022/05/13 06:46:29;;;;;;;20.90;7.13;;;;;;;20.95;73.34;100184.97;6228486;28;20049;-76
2022/05/13 06:49:30;;;;;;;13.50;5.97;;;;;;;21.06;73.45;100192.66;6220084;28;20139;-75
2022/05/13 06:52:31;;;;;;;7.83;5.80;;;;;;;21.17;75.90;100197.69;6248338;28;20089;-76
2022/05/13 06:55:33;;;;;;;15.13;5.45;;;;;;;21.28;73.87;100191.25;6221872;28;20050;-75
2022/05/13 06:58:35;;;;;;;9.13;5.43;;;;;;;21.38;74.01;100199.09;6249539;28;20442;-75
2022/05/13 07:01:36;;;;;;;20.75;5.00;;;;;;;21.64;68.35;100194.59;6232350;28;20053;-76
2022/05/13 07:04:38;;;;;;;9.85;5.35;;;;;;;21.84;68.65;100200.41;6249070;28;20046;-76
2022/05/13 07:07:39;;;;;;;11.82;5.32;;;;;;;22.02;64.34;100194.16;6249084;28;20041;-76
2022/05/13 07:10:41;;;;;;;10.07;4.80;;;;;;;22.36;66.53;100193.19;6232673;28;20413;-76
2022/05/13 07:13:43;;;;;;;12.60;4.90;;;;;;;22.58;64.79;100191.69;6249956;28;20046;-76
2022/05/13 07:16:44;;;;;;;12.70;4.60;;;;;;;22.50;61.67;100190.66;6232240;28;20060;-76
2022/05/13 07:19:44;;;;;;;13.83;4.93;;;;;;;22.42;66.31;100190.69;6248579;28;20057;-76
2022/05/13 07:22:45;;;;;;;16.97;4.50;;;;;;;22.42;67.05;100181.88;6248976;28;20274;-76
2022/05/13 07:25:46;;;;;;;9.40;3.80;;;;;;;22.57;66.01;100184.69;6215822;28;20038;-76
2022/05/13 07:28:47;;;;;;;12.83;4.43;;;;;;;22.71;66.27;100184.84;6248513;28;20037;-76
2022/05/13 07:31:48;;;;;;;17.37;4.53;;;;;;;23.08;66.99;100190.56;6232278;28;20236;-76
2022/05/13 07:34:49;;;;;;;14.97;4.80;;;;;;;23.31;65.82;100196.81;6231962;28;20045;-76
2022/05/13 07:37:50;;;;;;;13.00;4.25;;;;;;;23.28;60.78;100196.34;6231880;28;20052;-76
2022/05/13 07:44:10;;;;;;;15.38;5.05;;;;;;;23.36;60.33;100198.13;6267194;28;20472;-76
2022/05/13 07:47:11;;;;;;;15.20;4.22;;;;;;;23.43;62.08;100194.63;6231285;28;20526;-76
2022/05/13 07:50:14;;;;;;;17.67;4.78;;;;;;;23.68;59.67;100203.31;6231554;28;20064;-76
2022/05/13 07:53:15;;;;;;;14.20;4.22;;;;;;;23.85;58.79;100204.06;6231270;28;20132;-73
2022/05/13 07:56:16;;;;;;;11.80;4.00;;;;;;;24.23;59.46;100195.28;6231443;28;20103;-73
2022/05/13 07:59:16;;;;;;;8.93;3.33;;;;;;;24.15;54.22;100201.50;6264200;28;20076;-74
2022/05/13 08:02:17;;;;;;;8.80;3.67;;;;;;;24.55;52.16;100198.72;6247841;28;20046;-74
2022/05/13 08:05:18;;;;;;;15.87;4.10;;;;;;;25.07;52.17;100200.50;6248696;28;20038;-74
2022/05/13 08:08:21;;;;;;;10.57;3.45;;;;;;;25.09;50.51;100203.81;6231011;28;20929;-73
2022/05/13 08:11:24;;;;;;;18.15;3.47;;;;;;;25.34;48.93;100197.19;6247004;28;20049;-74
2022/05/13 08:14:25;;;;;;;5.88;2.47;;;;;;;25.08;47.99;100207.47;6247396;28;20046;-73
2022/05/13 08:17:25;;;;;;;7.63;2.63;;;;;;;24.59;48.73;100206.19;6247322;28;20124;-73
2022/05/13 08:20:27;;;;;;;3.63;2.28;;;;;;;24.87;48.68;100205.56;6230786;28;20286;-74
2022/05/13 08:23:28;;;;;;;11.25;2.50;;;;;;;24.60;47.47;100205.16;6230621;28;20144;-76
2022/05/13 08:26:28;;;;;;;5.07;2.55;;;;;;;24.66;49.13;100215.09;6248486;28;20044;-76
2022/05/13 08:29:30;;;;;;;9.20;2.50;;;;;;;24.80;48.22;100212.66;6247031;28;20061;-76
2022/05/13 08:32:32;;;;;;;4.25;2.38;;;;;;;25.00;47.26;100212.91;6263710;28;20049;-76
2022/05/13 08:35:33;;;;;;;5.90;2.58;;;;;;;24.84;47.18;100209.41;6246958;28;20053;-76
2022/05/13 08:38:39;;;;;;;5.90;2.30;;;;;;;25.31;45.43;100205.59;6246779;28;20136;-76
2022/05/13 08:41:58;;;;;;;7.15;2.50;;;;;;;25.48;45.50;100197.34;6247122;28;20060;-76
2022/05/13 08:44:59;;;;;;;6.00;2.85;;;;;;;26.03;47.10;100187.91;6246581;28;20488;-77
2022/05/13 08:48:01;;;;;;;12.10;2.63;;;;;;;26.27;45.35;100196.53;6230224;28;20057;-77
2022/05/13 08:51:15;;;;;;;6.20;2.65;;;;;;;25.69;44.75;100185.88;6279917;28;20755;-76
2022/05/13 08:54:18;;;;;;;10.02;2.08;;;;;;;26.19;43.68;100189.50;6230111;28;20136;-76
2022/05/13 08:57:21;;;;;;;6.97;2.35;;;;;;;26.74;42.71;100176.34;6246293;28;20457;-76
2022/05/13 09:00:47;;;;;;;3.15;2.03;;;;;;;26.49;42.93;100183.97;6276244;28;20053;-76
2022/05/13 09:03:53;;;;;;;5.15;2.40;;;;;;;26.32;44.63;100168.19;6232005;28;20061;-76
2022/05/13 09:06:59;;;;;;;7.63;2.10;;;;;;;25.50;45.51;100173.97;6264149;28;20077;-76
2022/05/13 09:10:03;;;;;;;4.43;2.33;;;;;;;25.00;46.11;100157.72;6246197;28;20053;-76
2022/05/13 09:13:26;;;;;;;7.50;2.45;;;;;;;25.48;48.46;100160.78;6229850;28;20049;-76
2022/05/13 09:17:02;;;;;;;4.40;2.17;;;;;;;26.47;43.60;100153.91;6222871;28;20038;-77
2022/05/13 09:20:07;;;;;;;4.18;2.20;;;;;;;26.64;42.55;100149.91;6222775;28;20050;-76
2022/05/13 09:23:11;;;;;;;5.03;2.45;;;;;;;26.72;42.57;100146.28;6221055;28;20050;-76
2022/05/13 09:26:21;;;;;;;5.95;2.08;;;;;;;27.09;41.35;100147.69;6222720;28;20042;-77
2022/05/13 09:29:22;;;;;;;3.50;2.33;;;;;;;26.69;42.23;100154.72;6254377;28;20049;-77
2022/05/13 09:32:26;;;;;;;5.47;2.15;;;;;;;26.37;44.08;100150.75;6221576;28;20091;-76
2022/05/13 09:35:39;;;;;;;3.25;2.08;;;;;;;25.96;45.63;100154.09;6222701;28;20100;-76
2022/05/13 09:38:42;;;;;;;5.63;2.17;;;;;;;25.27;45.43;100155.41;6221409;28;20077;-77
2022/05/13 09:41:45;;;;;;;6.70;2.30;;;;;;;24.94;46.24;100153.13;6254705;28;20045;-76
2022/05/13 09:44:46;;;;;;;7.78;2.15;;;;;;;25.50;46.58;100150.75;6250136;28;20046;-77
2022/05/13 09:48:05;;;;;;;4.88;2.20;;;;;;;25.18;47.17;100159.16;6230111;28;20058;-76
2022/05/13 09:51:31;;;;;;;7.55;2.58;;;;;;;24.74;47.14;100159.00;6221178;28;20111;-76
2022/05/13 09:54:35;;;;;;;6.28;2.30;;;;;;;24.97;47.62;100144.72;6227028;28;20050;-76
2022/05/13 09:57:38;;;;;;;6.40;2.15;;;;;;;24.64;48.35;100138.94;6255388;28;20577;-76
2022/05/13 10:00:41;;;;;;;6.97;2.55;;;;;;;25.03;47.36;100133.31;6206490;28;20486;-77
2022/05/13 10:03:59;;;;;;;2.88;2.40;;;;;;;25.96;46.71;100132.72;6204836;28;20073;-76
2022/05/13 10:07:06;;;;;;;7.35;2.88;;;;;;;26.53;44.06;100131.72;6239208;28;20045;-76
2022/05/13 10:16:56;;;;;;;6.22;2.65;;;;;;;26.57;44.00;100119.63;6207055;28;20395;-77
2022/05/13 10:20:06;;;;;;;5.80;2.65;;;;;;;26.28;44.47;100115.31;6245145;28;20072;-76
2022/05/13 10:23:22;;;;;;;12.20;2.60;;;;;;;25.90;44.44;100113.78;6245252;28;20053;-76
2022/05/13 10:26:29;;;;;;;7.40;2.60;;;;;;;25.98;44.86;100107.44;6246564;28;20046;-77
2022/05/13 10:29:43;;;;;;;9.82;2.78;;;;;;;26.36;47.35;100101.78;6228240;28;20521;-76
2022/05/13 10:32:53;;;;;;;9.10;2.60;;;;;;;26.77;42.47;100101.03;6253971;28;20046;-77
2022/05/13 10:36:09;;;;;;;5.72;2.42;;;;;;;27.10;41.74;100098.47;6223256;28;20450;-77
2022/05/13 10:39:23;;;;;;;9.38;2.50;;;;;;;27.47;41.23;100100.88;6225287;28;20383;-76
2022/05/13 10:42:41;;;;;;;4.28;2.40;;;;;;;27.90;42.27;100101.38;6208836;28;20050;-77
2022/05/13 10:45:44;;;;;;;8.05;2.58;;;;;;;27.51;39.95;100094.09;6226250;28;20080;-77
2022/05/13 10:48:50;;;;;;;5.53;2.53;;;;;;;28.61;40.66;100097.19;6234845;28;20057;-77
2022/05/13 10:52:05;;;;;;;8.20;2.38;;;;;;;29.00;38.17;100079.28;6282665;28;20064;-77
2022/05/13 10:55:29;;;;;;;11.25;2.20;;;;;;;29.25;41.78;100079.38;6250747;28;20072;-77
2022/05/13 10:58:49;;;;;;;5.47;2.35;;;;;;;29.48;36.02;100076.13;6250508;28;20045;-77
2022/05/13 11:01:56;;;;;;;6.88;2.30;;;;;;;28.65;36.13;100074.25;6245830;28;20076;-77
2022/05/13 11:05:26;;;;;;;6.15;2.30;;;;;;;28.55;39.31;100075.72;6223679;28;20049;-77
2022/05/13 11:08:54;;;;;;;3.92;2.20;;;;;;;29.71;37.98;100070.22;6250434;28;20033;-77
2022/05/13 11:12:07;;;;;;;5.60;2.08;;;;;;;30.10;33.66;100060.16;6250387;28;20061;-78
2022/05/13 11:15:27;;;;;;;9.57;2.05;;;;;;;29.57;33.97;100055.19;6267737;28;20060;-78
2022/05/13 11:18:31;;;;;;;6.90;2.20;;;;;;;29.03;32.43;100051.97;6247240;28;20413;-77
2022/05/13 11:21:41;;;;;;;5.43;2.00;;;;;;;27.97;35.38;100060.34;6225784;28;20052;-77
2022/05/13 11:28:25;;;;;;;4.70;2.15;;;;;;;28.79;37.07;100050.06;6234635;28;20049;-77
2022/05/13 11:31:51;;;;;;;7.18;2.00;;;;;;;29.20;34.76;100040.75;6248725;28;20037;-73
2022/05/13 11:35:08;;;;;;;4.90;1.98;;;;;;;30.01;34.88;100042.63;6249957;28;20124;-77
2022/05/13 11:38:51;;;;;;;3.95;2.10;;;;;;;30.04;34.95;100025.22;6248494;28;20410;-77
2022/05/13 11:41:55;;;;;;;3.88;1.88;;;;;;;29.79;33.41;100031.47;6237429;28;20480;-77
2022/05/13 11:45:11;;;;;;;3.25;1.85;;;;;;;29.22;34.03;100033.31;6248420;28;20406;-77
2022/05/13 11:48:21;;;;;;;3.63;1.88;;;;;;;29.29;33.63;100026.03;6247468;28;20057;-77
2022/05/13 11:51:36;;;;;;;4.15;2.20;;;;;;;28.64;34.76;100015.41;6280770;28;20513;-76
2022/05/13 11:54:40;;;;;;;5.43;2.03;;;;;;;28.81;34.10;100015.75;6272810;28;20410;-76
2022/05/13 11:57:47;;;;;;;8.90;1.98;;;;;;;29.02;33.68;100011.94;6251101;28;20057;-77
2022/05/13 12:00:47;;;;;;;7.57;2.05;;;;;;;29.22;34.48;100007.28;6222735;28;20057;-77
2022/05/13 12:04:11;;;;;;;12.80;2.17;;;;;;;29.51;34.16;100005.00;6223529;28;20049;-77
2022/05/13 12:07:28;;;;;;;10.68;2.28;;;;;;;28.61;36.17;100003.25;6223099;28;20054;-77
2022/05/13 12:10:48;;;;;;;3.03;1.90;;;;;;;27.18;37.07;100013.63;6222938;28;20399;-76
2022/05/13 12:14:10;;;;;;;7.05;2.13;;;;;;;27.67;37.21;100015.13;6206808;28;20052;-76
2022/05/13 12:17:29;;;;;;;3.30;1.60;;;;;;;27.47;33.86;100013.28;6223608;28;20057;-76
2022/05/13 12:21:01;;;;;;;3.58;1.80;;;;;;;27.09;35.24;100013.81;6247326;28;20053;-77
2022/05/13 12:24:15;;;;;;;3.35;2.10;;;;;;;26.99;37.77;100016.03;6247324;28;20508;-76
2022/05/13 12:27:29;;;;;;;5.63;2.10;;;;;;;27.45;37.25;100014.53;6230691;28;20053;-74
2022/05/13 12:30:35;;;;;;;7.47;2.00;;;;;;;27.31;37.61;100013.69;6247081;28;20068;-73
2022/05/13 12:33:38;;;;;;;3.38;1.67;;;;;;;26.86;39.13;100006.13;6230586;28;20052;-73
2022/05/13 12:40:28;;;;;;;4.00;2.08;;;;;;;26.89;40.56;100004.91;6246645;28;20055;-74
2022/05/13 12:43:53;;;;;;;4.72;2.13;;;;;;;26.58;40.19;100000.06;6222147;28;20061;-74
2022/05/13 12:47:12;;;;;;;8.73;2.28;;;;;;;26.46;41.63;99997.94;6223171;28;20134;-74
2022/05/13 12:50:13;;;;;;;5.28;1.90;;;;;;;27.10;42.10;99998.59;6222151;28;20494;-74
2022/05/13 12:53:29;;;;;;;7.70;2.92;;;;;;;26.41;43.88;99995.00;6223336;28;20053;-74
2022/05/13 12:56:42;;;;;;;5.10;2.80;;;;;;;25.83;45.90;99997.94;6222179;28;20049;-73
2022/05/13 12:59:48;;;;;;;5.65;2.20;;;;;;;25.43;47.76;99999.44;6253955;28;20054;-74
2022/05/13 13:02:53;;;;;;;10.68;2.28;;;;;;;25.29;48.17;99999.34;6205615;28;20064;-74
2022/05/13 13:05:57;;;;;;;9.55;2.60;;;;;;;24.75;51.76;99991.75;6223041;28;20042;-74
2022/05/13 13:08:58;;;;;;;7.35;3.00;;;;;;;24.67;52.80;99998.03;6225801;28;20072;-74
2022/05/13 13:12:13;;;;;;;5.72;2.75;;;;;;;24.86;53.34;99993.09;6229153;28;20049;-74
2022/05/13 13:15:24;;;;;;;6.47;2.72;;;;;;;24.68;54.08;99988.16;6245953;28;20080;-73
2022/05/13 13:18:34;;;;;;;3.95;2.45;;;;;;;24.70;52.18;99988.81;6245951;28;20046;-74
2022/05/13 13:21:36;;;;;;;6.78;2.30;;;;;;;24.59;50.00;99991.97;6246999;28;20076;-73
2022/05/13 13:24:38;;;;;;;;;;;;;;;24.79;48.51;99984.19;6246133;28;20132;-73
2022/05/13 13:27:39;;;;;;;7.72;1.77;;;;;;;24.67;44.11;99991.88;6229265;28;19939;-74
2022/05/13 13:30:44;;;;;;;3.40;1.45;;;;;;;24.72;44.80;99982.25;6245512;28;20465;-73
2022/05/13 13:33:48;;;;;;;3.00;1.60;;;;;;;24.57;45.60;99976.16;6278836;28;20056;-73
2022/05/13 13:36:49;;;;;;;5.53;1.67;;;;;;;24.64;46.57;99976.22;6228943;28;20056;-73
2022/05/13 13:39:50;;;;;;;4.45;1.70;;;;;;;24.57;48.78;99983.31;6245444;28;20088;-73
2022/05/13 13:42:51;;;;;;;6.28;1.90;;;;;;;24.51;49.94;99979.56;6245315;28;20049;-73
2022/05/13 13:46:18;;;;;;;5.30;2.00;;;;;;;24.62;50.29;99975.59;6245376;28;20087;-73
2022/05/13 13:49:26;;;;;;;6.57;2.30;;;;;;;24.64;51.41;99966.38;6244402;28;20077;-73
2022/05/13 13:52:36;;;;;;;2.78;1.80;;;;;;;24.48;51.87;99970.06;6246495;28;20061;-74
2022/05/13 13:55:39;;;;;;;3.97;2.25;;;;;;;24.52;53.04;99967.88;6228767;28;20057;-73
2022/05/13 13:58:52;;;;;;;7.45;2.20;;;;;;;24.55;52.38;99966.69;6245826;28;20501;-75
2022/05/13 14:01:54;;;;;;;8.23;2.45;;;;;;;24.44;50.76;99963.44;6245093;28;20144;-75
2022/05/13 14:04:56;;;;;;;3.03;1.95;;;;;;;24.44;50.47;99959.94;6228853;28;20092;-75
2022/05/13 14:07:57;;;;;;;4.22;2.15;;;;;;;24.60;49.31;99956.28;6228809;28;20512;-75
2022/05/13 14:11:04;;;;;;;5.40;2.08;;;;;;;24.57;50.22;99954.81;6231550;28;20056;-75
2022/05/13 14:14:08;;;;;;;1.88;1.67;;;;;;;24.13;50.68;99952.97;6233662;28;20046;-75
2022/05/13 14:17:11;;;;;;;5.45;2.22;;;;;;;24.08;50.89;99956.19;6251539;28;20076;-76
2022/05/13 14:20:16;;;;;;;3.42;1.67;;;;;;;23.82;50.10;99963.81;6266566;28;20095;-76
2022/05/13 14:23:17;;;;;;;3.70;1.88;;;;;;;23.85;49.85;99955.47;6233261;28;20473;-76
2022/05/13 14:26:18;;;;;;;2.78;1.70;;;;;;;23.80;50.07;99958.66;6233316;28;20049;-75
2022/05/13 14:29:19;;;;;;;4.23;1.87;;;;;;;23.78;50.17;99954.53;6233240;28;20107;-75
2022/05/13 14:32:29;;;;;;;3.97;1.77;;;;;;;23.69;51.37;99949.25;6250867;28;20719;-75
2022/05/13 14:35:33;;;;;;;3.97;2.08;;;;;;;23.69;52.61;99951.91;6234337;28;20061;-75
2022/05/13 14:42:39;;;;;;;2.88;1.83;;;;;;;23.77;52.35;99958.22;6250667;28;20045;-75
2022/05/13 14:45:43;;;;;;;5.40;2.00;;;;;;;23.69;53.13;99949.25;6250500;28;20041;-75
2022/05/13 14:48:43;;;;;;;8.93;1.95;;;;;;;23.67;52.98;99945.94;6250432;28;20053;-75
2022/05/13 14:51:44;;;;;;;3.70;2.22;;;;;;;23.59;53.55;99943.34;6249030;28;20045;-75
2022/05/13 14:54:46;;;;;;;6.97;2.33;;;;;;;23.50;53.17;99942.59;6232945;28;20050;-76
2022/05/13 14:57:48;;;;;;;2.10;1.90;;;;;;;23.42;53.45;99945.34;6250423;28;20285;-76
2022/05/13 15:00:51;;;;;;;1.90;1.70;;;;;;;23.36;53.93;99958.53;6265865;28;20053;-75